CheckWX is a tool to help pilots better visualize weather data.  It is not intended as a substitute for an official pre-flight weather briefing.

07:45:50 UTC

LEAM METAR
Almería International Airport
Almería, Spain
Current

46 mins ago

LEAM 290700Z AUTO 04016KT CAVOK 26/04 Q1016
Observed
May-29 @ 07:00 UTC
Wind
  • 040° at 16 KTS
Visibility
10,000+ meters
Flight Rules
VFR
Cloud Levels
  • Clear skies
Temperature
26°C / 79°F
Dewpoint
C / 39°F
Humidity
24%
Altimeter
30" Hg
Pressure
1015.92 hPa
Previous

1 hour ago

LEAM 290630Z AUTO 01006KT 310V050 CAVOK 24/05 Q1016
Observed
May-29 @ 06:30 UTC
Wind
  • 010° at 6 KTS
Visibility
10,000+ meters
Flight Rules
VFR
Cloud Levels
  • Clear skies
Temperature
24°C / 75°F
Dewpoint
C / 41°F
Humidity
29%
Altimeter
30" Hg
Pressure
1015.92 hPa
Previous

2 hours ago

LEAM 290600Z AUTO 01006KT 330V080 CAVOK 23/05 Q1016
Observed
May-29 @ 06:00 UTC
Wind
  • 010° at 6 KTS
Visibility
10,000+ meters
Flight Rules
VFR
Cloud Levels
  • Clear skies
Temperature
23°C / 73°F
Dewpoint
C / 41°F
Humidity
31%
Altimeter
30" Hg
Pressure
1015.92 hPa